Time;durP1;ratioP1;P1;durP2;ratioP2;P2;SDS_P1;SDS_P2;PMS_P1;PMS_P2;Temp;Humidity;BMP_temperature;BMP_pressure;BME280_temperature;BME280_humidity;BME280_pressure;Samples;Min_cycle;Max_cycle;Signal;HPM_P1;HPM_P2
2022/03/27 00:01:30;;;;;;;43.00;26.27;;;;;;;;;;5052306;28;20675;-72
2022/03/27 00:03:58;;;;;;;42.73;25.97;;;;;;;;;;5051259;28;20214;-72
2022/03/27 00:06:27;;;;;;;44.63;27.37;;;;;;;;;;5052701;28;20284;-72
2022/03/27 00:08:55;;;;;;;44.13;27.03;;;;;;;;;;5051976;28;20206;-72
2022/03/27 00:11:28;;;;;;;44.30;26.70;;;;;;;;;;5052447;28;20667;-72
2022/03/27 00:13:57;;;;;;;41.93;25.73;;;;;;;;;;5051859;28;20234;-73
2022/03/27 00:16:25;;;;;;;40.60;25.57;;;;;;;;;;5051906;28;20219;-73
2022/03/27 00:18:56;;;;;;;43.20;26.90;;;;;;;;;;5051917;28;20289;-72
2022/03/27 00:21:24;;;;;;;45.67;27.40;;;;;;;;;;5052685;28;20277;-73
2022/03/27 00:23:54;;;;;;;44.63;28.17;;;;;;;;;;5054886;28;20211;-72
2022/03/27 00:26:23;;;;;;;44.73;27.07;;;;;;;;;;5056623;28;20743;-72
2022/03/27 00:28:52;;;;;;;46.77;28.13;;;;;;;;;;5055793;28;20286;-72
2022/03/27 00:31:21;;;;;;;45.43;27.30;;;;;;;;;;5055152;28;20662;-73
2022/03/27 00:33:50;;;;;;;43.77;26.07;;;;;;;;;;5056015;28;20231;-73
2022/03/27 00:36:21;;;;;;;45.63;27.43;;;;;;;;;;5054736;28;20210;-72
2022/03/27 00:38:49;;;;;;;44.40;26.53;;;;;;;;;;5055987;28;20635;-73
2022/03/27 00:41:18;;;;;;;49.07;27.27;;;;;;;;;;5055699;28;20261;-73
2022/03/27 00:43:47;;;;;;;46.40;27.77;;;;;;;;;;5053534;28;20207;-72
2022/03/27 00:46:15;;;;;;;47.93;29.33;;;;;;;;;;5054618;28;20211;-72
2022/03/27 00:48:44;;;;;;;49.23;29.57;;;;;;;;;;5055559;28;20195;-73
2022/03/27 00:51:12;;;;;;;48.70;28.90;;;;;;;;;;5054405;28;20289;-73
2022/03/27 00:53:42;;;;;;;50.07;28.63;;;;;;;;;;5055878;28;20203;-73
2022/03/27 00:56:11;;;;;;;43.87;27.13;;;;;;;;;;5055821;28;20719;-72
2022/03/27 00:58:39;;;;;;;43.13;26.03;;;;;;;;;;5055125;28;20222;-72
2022/03/27 01:01:16;;;;;;;42.13;26.40;;;;;;;;;;5035907;28;20199;-73
2022/03/27 01:03:47;;;;;;;43.27;27.20;;;;;;;;;;5036048;28;20188;-72
2022/03/27 01:06:20;;;;;;;45.00;26.17;;;;;;;;;;5043958;28;20574;-73
2022/03/27 01:11:38;;;;;;;43.57;26.50;;;;;;;;;;5029814;28;20207;-72
2022/03/27 01:14:06;;;;;;;42.57;26.37;;;;;;;;;;5055552;28;20233;-72
2022/03/27 01:16:39;;;;;;;41.87;25.00;;;;;;;;;;5053704;28;20632;-72
2022/03/27 01:19:08;;;;;;;45.70;26.63;;;;;;;;;;5035600;28;20224;-72
2022/03/27 01:21:40;;;;;;;42.37;26.40;;;;;;;;;;5048625;28;20203;-72
2022/03/27 01:24:09;;;;;;;42.80;26.60;;;;;;;;;;5048405;28;20225;-73
2022/03/27 01:26:38;;;;;;;41.57;25.70;;;;;;;;;;5049405;28;20229;-72
2022/03/27 01:29:07;;;;;;;40.13;25.63;;;;;;;;;;5055022;28;20267;-72
2022/03/27 01:31:35;;;;;;;40.90;25.83;;;;;;;;;;5055168;28;20203;-72
2022/03/27 01:34:04;;;;;;;47.30;27.47;;;;;;;;;;5054103;28;20215;-72
2022/03/27 01:36:34;;;;;;;42.43;26.70;;;;;;;;;;5052786;28;20690;-72
2022/03/27 01:39:06;;;;;;;44.00;27.40;;;;;;;;;;5054629;28;20222;-73
2022/03/27 01:41:34;;;;;;;42.70;25.87;;;;;;;;;;5054988;28;20215;-72
2022/03/27 01:44:02;;;;;;;39.70;25.77;;;;;;;;;;5054504;28;20203;-73
2022/03/27 01:46:35;;;;;;;43.60;27.53;;;;;;;;;;5055026;28;20227;-73
2022/03/27 01:49:05;;;;;;;41.17;26.93;;;;;;;;;;5054706;28;20206;-72
2022/03/27 01:51:33;;;;;;;40.33;26.20;;;;;;;;;;5053393;28;20672;-72
2022/03/27 01:54:01;;;;;;;43.47;27.03;;;;;;;;;;5054669;28;20203;-72
2022/03/27 01:56:32;;;;;;;43.17;25.73;;;;;;;;;;5053341;28;20694;-72
2022/03/27 01:59:01;;;;;;;44.10;26.90;;;;;;;;;;5054444;28;20219;-73
2022/03/27 02:01:29;;;;;;;43.40;27.27;;;;;;;;;;5055073;28;20211;-72
2022/03/27 02:03:58;;;;;;;39.63;24.83;;;;;;;;;;5053729;28;20203;-73
2022/03/27 02:06:26;;;;;;;38.70;23.73;;;;;;;;;;5054312;28;20245;-73
2022/03/27 02:08:55;;;;;;;36.57;22.57;;;;;;;;;;5052920;28;20203;-73
2022/03/27 02:11:23;;;;;;;33.10;21.37;;;;;;;;;;5054242;28;20206;-73
2022/03/27 02:13:53;;;;;;;33.93;21.93;;;;;;;;;;5054331;28;20203;-72
2022/03/27 02:16:22;;;;;;;31.63;19.93;;;;;;;;;;5054284;28;20218;-72
2022/03/27 02:18:51;;;;;;;33.57;20.80;;;;;;;;;;5053361;28;20223;-72
2022/03/27 02:21:20;;;;;;;33.40;20.93;;;;;;;;;;5054180;28;20634;-72
2022/03/27 02:23:48;;;;;;;33.83;21.57;;;;;;;;;;5052970;28;20211;-72
2022/03/27 02:26:16;;;;;;;33.43;21.40;;;;;;;;;;5048792;28;20615;-72
2022/03/27 02:28:45;;;;;;;31.50;20.23;;;;;;;;;;5053650;28;20191;-72
2022/03/27 02:31:15;;;;;;;31.97;18.93;;;;;;;;;;5053504;28;20694;-73
2022/03/27 02:33:43;;;;;;;34.17;20.30;;;;;;;;;;5053842;28;20206;-73
2022/03/27 02:36:11;;;;;;;30.27;19.43;;;;;;;;;;5053032;28;20542;-72
2022/03/27 02:38:40;;;;;;;32.27;19.27;;;;;;;;;;5053675;28;20226;-72
2022/03/27 02:41:08;;;;;;;33.43;18.70;;;;;;;;;;5053065;28;20211;-73
2022/03/27 02:43:38;;;;;;;28.77;18.30;;;;;;;;;;5053895;28;20207;-72
2022/03/27 02:46:08;;;;;;;34.37;19.90;;;;;;;;;;5053163;28;20203;-73
2022/03/27 02:48:38;;;;;;;28.77;17.97;;;;;;;;;;5053269;28;20206;-73
2022/03/27 02:51:07;;;;;;;30.47;17.80;;;;;;;;;;5050078;28;20221;-72
2022/03/27 02:53:35;;;;;;;32.57;19.53;;;;;;;;;;5033643;28;20207;-72
2022/03/27 02:56:05;;;;;;;30.23;21.43;;;;;;;;;;5033638;28;20234;-72
2022/03/27 02:58:33;;;;;;;32.17;22.77;;;;;;;;;;5041702;28;20223;-72
2022/03/27 03:01:02;;;;;;;33.73;23.20;;;;;;;;;;5053570;28;20724;-72
2022/03/27 03:03:31;;;;;;;34.53;24.07;;;;;;;;;;5053266;28;20211;-72
2022/03/27 03:06:03;;;;;;;33.67;22.23;;;;;;;;;;5051960;28;20199;-73
2022/03/27 03:08:32;;;;;;;37.50;22.90;;;;;;;;;;5052985;28;20252;-73
2022/03/27 03:11:00;;;;;;;39.80;24.50;;;;;;;;;;5053548;28;20288;-73
2022/03/27 03:13:29;;;;;;;36.30;23.13;;;;;;;;;;5053170;28;20214;-72
2022/03/27 03:15:57;;;;;;;35.97;22.83;;;;;;;;;;5051517;28;20555;-72
2022/03/27 03:18:26;;;;;;;37.87;23.50;;;;;;;;;;5052858;28;20224;-72
2022/03/27 03:20:55;;;;;;;40.03;23.00;;;;;;;;;;5053080;28;20206;-72
2022/03/27 03:23:24;;;;;;;35.07;23.17;;;;;;;;;;5053162;28;20260;-73
2022/03/27 03:25:54;;;;;;;35.20;22.47;;;;;;;;;;5053036;28;20210;-72
2022/03/27 03:28:38;;;;;;;37.20;22.73;;;;;;;;;;5052385;28;20191;-72
2022/03/27 03:31:07;;;;;;;37.30;23.17;;;;;;;;;;5052818;28;20214;-72
2022/03/27 03:33:35;;;;;;;38.20;23.40;;;;;;;;;;5052279;28;20214;-72
2022/03/27 03:36:04;;;;;;;37.80;23.93;;;;;;;;;;5052796;28;20218;-73
2022/03/27 03:38:34;;;;;;;36.63;24.27;;;;;;;;;;5052463;28;20605;-72
2022/03/27 03:41:02;;;;;;;35.83;23.43;;;;;;;;;;5052787;28;20735;-73
2022/03/27 03:43:32;;;;;;;40.33;23.70;;;;;;;;;;5052121;28;20201;-72
2022/03/27 03:46:00;;;;;;;37.67;24.30;;;;;;;;;;5051358;28;20210;-73
2022/03/27 03:48:29;;;;;;;35.77;23.77;;;;;;;;;;5044263;28;20202;-72
2022/03/27 03:50:57;;;;;;;38.03;25.27;;;;;;;;;;5051862;28;20206;-72
2022/03/27 03:53:27;;;;;;;40.33;24.57;;;;;;;;;;5053101;28;20206;-72
2022/03/27 03:55:57;;;;;;;38.20;24.53;;;;;;;;;;5051515;28;20617;-73
2022/03/27 03:58:25;;;;;;;34.03;22.60;;;;;;;;;;5053228;28;20207;-72
2022/03/27 04:00:54;;;;;;;34.20;22.33;;;;;;;;;;5056517;28;20214;-73
2022/03/27 04:03:22;;;;;;;34.73;22.70;;;;;;;;;;5056768;28;20206;-72
2022/03/27 04:05:51;;;;;;;35.73;22.77;;;;;;;;;;5057092;28;20213;-73
2022/03/27 04:08:19;;;;;;;35.67;22.80;;;;;;;;;;5044164;28;20581;-73
2022/03/27 04:10:48;;;;;;;40.27;22.67;;;;;;;;;;5056437;28;20571;-72
2022/03/27 04:13:18;;;;;;;36.47;22.17;;;;;;;;;;5056651;28;20272;-72
2022/03/27 04:15:46;;;;;;;38.87;23.87;;;;;;;;;;5055740;28;20259;-72
2022/03/27 04:18:24;;;;;;;36.20;23.40;;;;;;;;;;5054853;28;20234;-73
2022/03/27 04:20:52;;;;;;;34.97;22.33;;;;;;;;;;5056773;28;20202;-72
2022/03/27 04:23:21;;;;;;;32.60;21.33;;;;;;;;;;5056221;28;20214;-72
2022/03/27 04:25:49;;;;;;;33.77;21.47;;;;;;;;;;5055421;28;20256;-72
2022/03/27 04:28:19;;;;;;;34.93;21.17;;;;;;;;;;5055241;28;20763;-73
2022/03/27 04:30:47;;;;;;;37.30;23.27;;;;;;;;;;5056281;28;20226;-72
2022/03/27 04:33:16;;;;;;;36.80;22.33;;;;;;;;;;5056130;28;20234;-72
2022/03/27 04:35:45;;;;;;;31.07;20.90;;;;;;;;;;5055190;28;20214;-72
2022/03/27 04:38:14;;;;;;;34.90;21.90;;;;;;;;;;5055709;28;20226;-72
2022/03/27 04:40:42;;;;;;;33.97;21.37;;;;;;;;;;5054484;28;20280;-72
2022/03/27 04:43:13;;;;;;;35.83;22.23;;;;;;;;;;5055876;28;20272;-72
2022/03/27 04:45:42;;;;;;;36.43;22.40;;;;;;;;;;5056068;28;20209;-72
2022/03/27 04:48:11;;;;;;;34.43;21.47;;;;;;;;;;5055157;28;20266;-72
2022/03/27 04:50:39;;;;;;;36.07;21.07;;;;;;;;;;5054910;28;20324;-72
2022/03/27 04:53:08;;;;;;;34.13;21.63;;;;;;;;;;5055317;28;20203;-72
2022/03/27 04:55:36;;;;;;;36.47;21.93;;;;;;;;;;5054085;28;20252;-72
2022/03/27 04:58:08;;;;;;;36.30;21.20;;;;;;;;;;5055956;28;20225;-72
2022/03/27 05:00:37;;;;;;;35.00;20.93;;;;;;;;;;5054165;28;20560;-72
2022/03/27 05:03:06;;;;;;;34.13;20.93;;;;;;;;;;5055609;28;20213;-72
2022/03/27 05:05:35;;;;;;;33.43;20.70;;;;;;;;;;5055093;28;20206;-72
2022/03/27 05:08:03;;;;;;;33.27;21.80;;;;;;;;;;5055641;28;20270;-72
2022/03/27 05:10:32;;;;;;;35.80;21.23;;;;;;;;;;5054283;28;20206;-72
2022/03/27 05:13:00;;;;;;;34.37;20.93;;;;;;;;;;5055688;28;20218;-72
2022/03/27 05:15:29;;;;;;;33.60;20.60;;;;;;;;;;5054060;28;20206;-72
2022/03/27 05:17:58;;;;;;;32.60;20.77;;;;;;;;;;5055558;28;20230;-72
2022/03/27 05:20:29;;;;;;;35.73;22.13;;;;;;;;;;5053596;28;20229;-72
2022/03/27 05:22:59;;;;;;;34.00;21.20;;;;;;;;;;5054589;28;20203;-73
2022/03/27 05:25:27;;;;;;;36.90;22.17;;;;;;;;;;5055487;28;20202;-72
2022/03/27 05:27:58;;;;;;;31.67;19.93;;;;;;;;;;5055504;28;20230;-72
2022/03/27 05:30:27;;;;;;;31.17;19.90;;;;;;;;;;5054410;28;20276;-73
2022/03/27 05:32:56;;;;;;;33.57;21.20;;;;;;;;;;5054619;28;20210;-72
2022/03/27 05:35:25;;;;;;;32.67;20.13;;;;;;;;;;5053094;28;20221;-72
2022/03/27 05:37:54;;;;;;;34.00;20.47;;;;;;;;;;5054798;28;20226;-72
2022/03/27 05:40:24;;;;;;;28.40;19.43;;;;;;;;;;5053943;28;20226;-73
2022/03/27 05:42:53;;;;;;;32.07;20.67;;;;;;;;;;5053433;28;20755;-73
2022/03/27 05:45:23;;;;;;;33.20;20.40;;;;;;;;;;5037895;28;20216;-73
2022/03/27 05:47:52;;;;;;;33.30;21.03;;;;;;;;;;5033330;28;20234;-72
2022/03/27 05:50:22;;;;;;;33.47;21.13;;;;;;;;;;5039106;28;20207;-72
2022/03/27 05:52:51;;;;;;;32.17;20.83;;;;;;;;;;5053842;28;20211;-73
2022/03/27 05:55:22;;;;;;;36.13;21.83;;;;;;;;;;5054567;28;20272;-72
2022/03/27 05:57:50;;;;;;;33.07;21.13;;;;;;;;;;5054816;28;20222;-72
2022/03/27 06:00:21;;;;;;;34.17;21.30;;;;;;;;;;5054735;28;20230;-73
2022/03/27 06:02:49;;;;;;;34.37;21.57;;;;;;;;;;5055022;28;20199;-73
2022/03/27 06:05:22;;;;;;;36.93;21.60;;;;;;;;;;5052639;28;20218;-72
2022/03/27 06:07:52;;;;;;;37.43;22.43;;;;;;;;;;5054074;28;20233;-72
2022/03/27 06:10:23;;;;;;;38.07;21.77;;;;;;;;;;5053470;28;20653;-73
2022/03/27 06:12:51;;;;;;;35.57;21.53;;;;;;;;;;5054441;28;20267;-72
2022/03/27 06:15:20;;;;;;;35.13;22.73;;;;;;;;;;5052489;28;20268;-73
2022/03/27 06:17:49;;;;;;;32.77;20.93;;;;;;;;;;5052700;28;20281;-73
2022/03/27 06:20:18;;;;;;;35.67;21.50;;;;;;;;;;5052477;28;20268;-72
2022/03/27 06:22:47;;;;;;;36.60;22.40;;;;;;;;;;5054044;28;20264;-72
2022/03/27 06:25:16;;;;;;;35.57;21.63;;;;;;;;;;5052685;28;20261;-72
2022/03/27 06:27:46;;;;;;;34.20;22.17;;;;;;;;;;5054333;28;20226;-73
2022/03/27 06:30:16;;;;;;;33.93;21.33;;;;;;;;;;5051813;28;20566;-72
2022/03/27 06:32:45;;;;;;;34.63;21.40;;;;;;;;;;5052478;28;20232;-73
2022/03/27 06:35:15;;;;;;;35.60;21.57;;;;;;;;;;5046742;28;20222;-72
2022/03/27 06:37:43;;;;;;;38.73;22.50;;;;;;;;;;5046225;28;20675;-72
2022/03/27 06:40:13;;;;;;;38.57;23.00;;;;;;;;;;5046868;28;20296;-73
2022/03/27 06:42:42;;;;;;;36.50;22.20;;;;;;;;;;5052630;28;20276;-72
2022/03/27 06:45:13;;;;;;;35.63;21.70;;;;;;;;;;5052625;28;20280;-73
2022/03/27 06:47:42;;;;;;;43.37;23.03;;;;;;;;;;5050723;28;20222;-72
2022/03/27 06:50:11;;;;;;;39.83;22.60;;;;;;;;;;5051943;28;20214;-73
2022/03/27 06:52:39;;;;;;;34.80;22.03;;;;;;;;;;5053082;28;20210;-72
2022/03/27 06:55:09;;;;;;;37.87;22.93;;;;;;;;;;5050752;28;20212;-72
2022/03/27 06:57:38;;;;;;;35.30;22.17;;;;;;;;;;5051861;28;20245;-73
2022/03/27 07:03:06;;;;;;;35.60;20.33;;;;;;;;;;5053466;28;20240;-73
2022/03/27 07:05:36;;;;;;;35.83;21.77;;;;;;;;;;5052150;28;20660;-72
2022/03/27 07:08:06;;;;;;;34.20;22.70;;;;;;;;;;5050495;28;20234;-73
2022/03/27 07:10:36;;;;;;;36.37;20.63;;;;;;;;;;5049922;28;20198;-72
2022/03/27 07:13:08;;;;;;;33.97;20.30;;;;;;;;;;5048852;28;20286;-73
2022/03/27 07:15:36;;;;;;;34.67;20.10;;;;;;;;;;5049580;28;20198;-73
2022/03/27 07:18:07;;;;;;;34.43;20.73;;;;;;;;;;5048946;28;20763;-73
2022/03/27 07:20:36;;;;;;;34.83;21.07;;;;;;;;;;5051416;28;20230;-73
2022/03/27 07:23:06;;;;;;;36.70;21.17;;;;;;;;;;5052152;28;20739;-72
2022/03/27 07:25:36;;;;;;;32.77;19.83;;;;;;;;;;5052448;28;20218;-73
2022/03/27 07:28:06;;;;;;;35.07;20.93;;;;;;;;;;5052347;28;20234;-73
2022/03/27 07:30:36;;;;;;;30.10;19.60;;;;;;;;;;5052711;28;20199;-72
2022/03/27 07:33:07;;;;;;;35.27;19.97;;;;;;;;;;5050177;28;20226;-73
2022/03/27 07:35:37;;;;;;;31.60;20.57;;;;;;;;;;5050185;28;20300;-73
2022/03/27 07:38:08;;;;;;;32.67;21.23;;;;;;;;;;5049990;28;20306;-73
2022/03/27 07:40:38;;;;;;;33.33;20.73;;;;;;;;;;5050318;28;22324;-72
2022/03/27 07:43:07;;;;;;;37.50;21.73;;;;;;;;;;5052273;28;20206;-73
2022/03/27 07:45:36;;;;;;;32.43;20.20;;;;;;;;;;5052260;28;20724;-73
2022/03/27 07:48:07;;;;;;;31.67;19.20;;;;;;;;;;5052073;28;20313;-72
2022/03/27 07:50:36;;;;;;;33.87;20.77;;;;;;;;;;5049000;28;20261;-73
2022/03/27 07:53:06;;;;;;;32.17;19.73;;;;;;;;;;5050781;28;20202;-73
2022/03/27 07:55:37;;;;;;;34.40;21.10;;;;;;;;;;5052597;28;20278;-72
2022/03/27 07:58:06;;;;;;;33.33;19.97;;;;;;;;;;5051637;28;20230;-73
2022/03/27 08:00:35;;;;;;;34.97;20.60;;;;;;;;;;5042855;28;20206;-72
2022/03/27 08:03:05;;;;;;;32.40;19.93;;;;;;;;;;5034742;28;20241;-73
2022/03/27 08:05:35;;;;;;;32.87;20.63;;;;;;;;;;5050917;28;20218;-73
2022/03/27 08:08:04;;;;;;;33.33;19.17;;;;;;;;;;5051389;28;20231;-73
2022/03/27 08:10:33;;;;;;;33.67;19.63;;;;;;;;;;5038344;28;20567;-73
2022/03/27 08:13:02;;;;;;;28.63;18.17;;;;;;;;;;5051723;28;20202;-72
2022/03/27 08:15:31;;;;;;;34.13;19.33;;;;;;;;;;5049166;28;20206;-73
2022/03/27 08:18:01;;;;;;;32.70;20.03;;;;;;;;;;5051128;28;20223;-73
2022/03/27 08:20:32;;;;;;;31.20;19.10;;;;;;;;;;5037856;28;20250;-72
2022/03/27 08:23:02;;;;;;;31.93;19.27;;;;;;;;;;5032624;28;20311;-73
2022/03/27 08:28:20;;;;;;;30.00;18.27;;;;;;;;;;5049029;28;20219;-72
2022/03/27 08:30:49;;;;;;;29.97;19.63;;;;;;;;;;5049386;28;20223;-72
2022/03/27 08:33:19;;;;;;;29.00;18.77;;;;;;;;;;5051372;28;20237;-73
2022/03/27 08:35:48;;;;;;;30.87;18.20;;;;;;;;;;5051985;28;20272;-73
2022/03/27 08:38:20;;;;;;;30.53;19.23;;;;;;;;;;5049919;28;20305;-74
2022/03/27 08:40:52;;;;;;;33.13;19.53;;;;;;;;;;5048096;28;20200;-73
2022/03/27 08:43:20;;;;;;;27.97;18.03;;;;;;;;;;5051869;28;20690;-74
2022/03/27 08:45:50;;;;;;;29.50;18.37;;;;;;;;;;5045725;28;20203;-73
2022/03/27 08:48:19;;;;;;;30.73;19.73;;;;;;;;;;5054951;28;20694;-73
2022/03/27 08:50:58;;;;;;;30.50;18.63;;;;;;;;;;5054994;28;20217;-73
2022/03/27 08:53:32;;;;;;;31.43;19.30;;;;;;;;;;5054482;28;20207;-73
2022/03/27 08:56:07;;;;;;;32.93;20.73;;;;;;;;;;5053572;28;20202;-74
2022/03/27 08:58:37;;;;;;;33.47;21.57;;;;;;;;;;5055883;28;20294;-73
2022/03/27 09:01:07;;;;;;;31.97;21.07;;;;;;;;;;5054401;28;20716;-74
2022/03/27 09:03:36;;;;;;;32.33;21.43;;;;;;;;;;5055816;28;20286;-73
2022/03/27 09:06:07;;;;;;;31.63;19.80;;;;;;;;;;5052182;28;20203;-74
2022/03/27 09:08:40;;;;;;;30.03;20.20;;;;;;;;;;5055203;28;20728;-74
2022/03/27 09:11:11;;;;;;;31.47;20.40;;;;;;;;;;5055231;28;20211;-74
2022/03/27 09:13:42;;;;;;;31.93;20.10;;;;;;;;;;5055435;28;20219;-74
2022/03/27 09:16:11;;;;;;;30.10;18.80;;;;;;;;;;5053702;28;20207;-74
2022/03/27 09:18:44;;;;;;;30.83;19.40;;;;;;;;;;5054591;28;20281;-73
2022/03/27 09:21:17;;;;;;;30.17;19.73;;;;;;;;;;5054927;28;20226;-74
2022/03/27 09:23:52;;;;;;;31.93;20.07;;;;;;;;;;5055359;28;20198;-74
2022/03/27 09:26:21;;;;;;;33.43;20.90;;;;;;;;;;5054144;28;20317;-74
2022/03/27 09:28:52;;;;;;;29.67;19.17;;;;;;;;;;5052616;28;20211;-73
2022/03/27 09:31:22;;;;;;;29.63;19.03;;;;;;;;;;5054311;28;20658;-73
2022/03/27 09:33:53;;;;;;;29.90;18.60;;;;;;;;;;5054506;28;20293;-74
2022/03/27 09:36:23;;;;;;;31.17;20.43;;;;;;;;;;5053464;28;20694;-74
2022/03/27 09:39:00;;;;;;;28.03;19.13;;;;;;;;;;5051904;28;20203;-74
2022/03/27 09:41:41;;;;;;;28.07;19.10;;;;;;;;;;5053907;28;20195;-74
2022/03/27 09:44:12;;;;;;;29.23;18.97;;;;;;;;;;5054301;28;20660;-74
2022/03/27 09:46:51;;;;;;;27.70;19.10;;;;;;;;;;5052633;28;20219;-74
2022/03/27 09:49:21;;;;;;;27.60;19.77;;;;;;;;;;5054838;28;20195;-74
2022/03/27 09:51:54;;;;;;;30.37;19.70;;;;;;;;;;5054348;28;20206;-74
2022/03/27 09:54:25;;;;;;;30.87;20.63;;;;;;;;;;5053478;28;20235;-74
2022/03/27 09:56:54;;;;;;;29.50;20.93;;;;;;;;;;5053222;28;20230;-75
2022/03/27 09:59:30;;;;;;;28.67;20.30;;;;;;;;;;5054120;28;20199;-74
2022/03/27 10:02:14;;;;;;;29.00;20.43;;;;;;;;;;5053607;28;20223;-74
2022/03/27 10:04:52;;;;;;;30.20;19.93;;;;;;;;;;5049630;28;20211;-74
2022/03/27 10:07:24;;;;;;;29.00;19.53;;;;;;;;;;5048962;28;20238;-74
2022/03/27 10:09:55;;;;;;;28.73;20.37;;;;;;;;;;5047755;28;20570;-74
2022/03/27 10:12:27;;;;;;;27.93;19.50;;;;;;;;;;5042629;28;20665;-73
2022/03/27 10:14:59;;;;;;;26.73;19.90;;;;;;;;;;5053811;28;20293;-74
2022/03/27 10:17:29;;;;;;;27.20;19.27;;;;;;;;;;5053798;28;20226;-74
2022/03/27 10:20:00;;;;;;;28.43;20.47;;;;;;;;;;5053609;28;20218;-74
2022/03/27 10:22:30;;;;;;;27.77;19.70;;;;;;;;;;5049641;28;20265;-74
2022/03/27 10:25:02;;;;;;;29.43;21.33;;;;;;;;;;5053612;28;20285;-75
2022/03/27 10:27:32;;;;;;;30.47;21.37;;;;;;;;;;5051370;28;20255;-75
2022/03/27 10:30:02;;;;;;;29.57;22.10;;;;;;;;;;5043760;28;20210;-74
2022/03/27 10:32:32;;;;;;;25.90;20.50;;;;;;;;;;5050737;28;20210;-75
2022/03/27 10:35:13;;;;;;;29.63;21.60;;;;;;;;;;5053019;28;20237;-74
2022/03/27 10:37:46;;;;;;;27.70;20.73;;;;;;;;;;5050823;28;20230;-74
2022/03/27 10:40:20;;;;;;;29.93;21.73;;;;;;;;;;5048617;28;20199;-75
2022/03/27 10:42:53;;;;;;;31.13;21.80;;;;;;;;;;5051239;28;20234;-74
2022/03/27 10:45:23;;;;;;;28.83;21.27;;;;;;;;;;5053590;28;20203;-74
2022/03/27 10:48:11;;;;;;;28.63;20.93;;;;;;;;;;5051317;28;20226;-74
2022/03/27 10:50:47;;;;;;;29.43;21.27;;;;;;;;;;5051857;28;20210;-74
2022/03/27 10:53:18;;;;;;;27.57;21.63;;;;;;;;;;5042391;28;20196;-72
2022/03/27 10:55:50;;;;;;;30.37;21.17;;;;;;;;;;5051255;28;20210;-74
2022/03/27 10:58:27;;;;;;;26.80;21.73;;;;;;;;;;5051612;28;20219;-74
2022/03/27 11:00:55;;;;;;;28.23;22.03;;;;;;;;;;5052389;28;20206;-73
2022/03/27 11:03:43;;;;;;;29.80;22.73;;;;;;;;;;5053409;28;20219;-73
2022/03/27 11:06:21;;;;;;;30.17;22.43;;;;;;;;;;5047533;28;20211;-73
2022/03/27 11:08:50;;;;;;;26.63;21.53;;;;;;;;;;5051459;28;20283;-73
2022/03/27 11:11:37;;;;;;;26.73;20.47;;;;;;;;;;5049863;28;20199;-73
2022/03/27 11:14:07;;;;;;;28.67;21.57;;;;;;;;;;5051810;28;20210;-73
2022/03/27 11:16:37;;;;;;;26.37;21.03;;;;;;;;;;5047613;28;20229;-73
2022/03/27 11:19:06;;;;;;;27.30;21.60;;;;;;;;;;5049718;28;20661;-73
2022/03/27 11:21:46;;;;;;;29.07;21.87;;;;;;;;;;5050564;28;20207;-74
2022/03/27 11:24:30;;;;;;;29.87;20.47;;;;;;;;;;5051158;28;20219;-73
2022/03/27 11:26:58;;;;;;;29.57;22.37;;;;;;;;;;5048053;28;20226;-73
2022/03/27 11:29:28;;;;;;;29.50;21.67;;;;;;;;;;5050144;28;20256;-74
2022/03/27 11:32:07;;;;;;;26.47;21.63;;;;;;;;;;5048858;28;20202;-73
2022/03/27 11:34:36;;;;;;;28.20;21.93;;;;;;;;;;5042636;28;20615;-73
2022/03/27 11:37:26;;;;;;;28.90;22.03;;;;;;;;;;5050723;28;20227;-73
2022/03/27 11:39:55;;;;;;;29.30;21.30;;;;;;;;;;5051203;28;20203;-74
2022/03/27 11:42:34;;;;;;;27.50;21.67;;;;;;;;;;5050759;28;20605;-73
2022/03/27 11:45:24;;;;;;;28.80;21.73;;;;;;;;;;5044120;28;20727;-73
2022/03/27 11:47:55;;;;;;;31.37;22.13;;;;;;;;;;5051386;28;20230;-73
2022/03/27 11:50:34;;;;;;;28.00;21.83;;;;;;;;;;5050085;28;20214;-73
2022/03/27 11:53:04;;;;;;;29.50;21.33;;;;;;;;;;5051840;28;20198;-73
2022/03/27 11:55:33;;;;;;;25.80;20.93;;;;;;;;;;5045994;28;20294;-73
2022/03/27 11:58:03;;;;;;;27.00;20.83;;;;;;;;;;5051901;28;20582;-73
2022/03/27 12:00:33;;;;;;;30.60;23.17;;;;;;;;;;5051815;28;20213;-74
2022/03/27 12:03:05;;;;;;;26.33;21.27;;;;;;;;;;5048756;28;20219;-73
2022/03/27 12:05:35;;;;;;;27.33;21.70;;;;;;;;;;5050500;28;20237;-73
2022/03/27 12:08:03;;;;;;;26.90;21.37;;;;;;;;;;5032490;28;20630;-74
2022/03/27 12:10:40;;;;;;;27.07;21.03;;;;;;;;;;5043960;28;20229;-73
2022/03/27 12:13:09;;;;;;;26.17;21.70;;;;;;;;;;5050828;28;20665;-74
2022/03/27 12:15:46;;;;;;;27.70;22.73;;;;;;;;;;5040702;28;20217;-73
2022/03/27 12:18:27;;;;;;;28.60;21.53;;;;;;;;;;5045840;28;20223;-73
2022/03/27 12:20:56;;;;;;;27.07;20.80;;;;;;;;;;5056975;28;20207;-73
2022/03/27 12:23:26;;;;;;;26.83;21.40;;;;;;;;;;5055534;28;20261;-72
2022/03/27 12:25:59;;;;;;;28.30;21.50;;;;;;;;;;5055153;28;20207;-73
2022/03/27 12:31:21;;;;;;;27.60;22.03;;;;;;;;;;5052811;28;20207;-73
2022/03/27 12:33:52;;;;;;;29.43;22.13;;;;;;;;;;5055204;28;20294;-73
2022/03/27 12:36:23;;;;;;;26.33;21.27;;;;;;;;;;5049866;28;20305;-73
2022/03/27 12:38:51;;;;;;;29.97;22.43;;;;;;;;;;5055849;28;20257;-72
2022/03/27 12:41:38;;;;;;;29.87;22.00;;;;;;;;;;5052081;28;20650;-73
2022/03/27 12:44:07;;;;;;;29.30;22.00;;;;;;;;;;5054835;28;20241;-73
2022/03/27 12:46:35;;;;;;;29.27;21.97;;;;;;;;;;5054738;28;20277;-73
2022/03/27 12:49:06;;;;;;;27.57;21.93;;;;;;;;;;5055960;28;20203;-73
2022/03/27 12:51:35;;;;;;;27.00;21.37;;;;;;;;;;5056835;28;20267;-73
2022/03/27 12:54:04;;;;;;;28.40;21.90;;;;;;;;;;5056056;28;20203;-73
2022/03/27 12:56:33;;;;;;;26.97;20.77;;;;;;;;;;5054729;28;20292;-73
2022/03/27 12:59:17;;;;;;;28.23;22.00;;;;;;;;;;5055104;28;20199;-72
2022/03/27 13:01:45;;;;;;;27.60;22.10;;;;;;;;;;5055990;28;20210;-73
2022/03/27 13:04:15;;;;;;;27.20;21.23;;;;;;;;;;5055552;28;20227;-73
2022/03/27 13:06:44;;;;;;;27.70;21.13;;;;;;;;;;5055883;28;20231;-73
2022/03/27 13:09:21;;;;;;;30.47;22.37;;;;;;;;;;5054052;28;20215;-73
2022/03/27 13:11:50;;;;;;;27.93;20.93;;;;;;;;;;5055753;28;20207;-73
2022/03/27 13:14:18;;;;;;;27.40;21.57;;;;;;;;;;5053474;28;20269;-73
2022/03/27 13:16:49;;;;;;;27.50;19.97;;;;;;;;;;5054132;28;20235;-73
2022/03/27 13:19:20;;;;;;;25.73;19.20;;;;;;;;;;5050929;28;20226;-73
2022/03/27 13:21:51;;;;;;;24.00;18.43;;;;;;;;;;5053141;28;20203;-73
2022/03/27 13:24:21;;;;;;;24.80;18.60;;;;;;;;;;5050807;28;20230;-73
2022/03/27 13:26:50;;;;;;;23.70;18.53;;;;;;;;;;5053712;28;20231;-73
2022/03/27 13:29:20;;;;;;;24.70;19.67;;;;;;;;;;4703677;28;9999855;-73
2022/03/27 13:31:48;;;;;;;23.87;18.43;;;;;;;;;;5052211;28;20211;-72
2022/03/27 13:34:17;;;;;;;24.60;18.93;;;;;;;;;;5054224;28;20226;-73
2022/03/27 13:36:49;;;;;;;22.27;18.47;;;;;;;;;;5052326;28;20297;-73
2022/03/27 13:39:18;;;;;;;25.23;18.70;;;;;;;;;;5048326;28;20708;-72
2022/03/27 13:44:35;;;;;;;24.70;17.83;;;;;;;;;;5051160;28;20689;-72
2022/03/27 13:47:09;;;;;;;24.50;18.10;;;;;;;;;;5051849;28;20237;-73
2022/03/27 13:49:38;;;;;;;23.47;18.27;;;;;;;;;;5055097;28;20321;-73
2022/03/27 13:52:09;;;;;;;24.67;18.40;;;;;;;;;;5053893;28;20198;-73
2022/03/27 13:54:38;;;;;;;24.40;18.03;;;;;;;;;;5051894;28;20223;-73
2022/03/27 13:57:07;;;;;;;22.70;18.07;;;;;;;;;;5047640;28;20706;-73
2022/03/27 13:59:35;;;;;;;25.20;18.73;;;;;;;;;;5050934;28;20245;-73
2022/03/27 14:02:05;;;;;;;22.80;17.70;;;;;;;;;;5054197;28;20268;-73
2022/03/27 14:04:33;;;;;;;24.73;17.83;;;;;;;;;;5051800;28;20702;-72
2022/03/27 14:07:02;;;;;;;22.97;18.27;;;;;;;;;;5053209;28;20721;-73
2022/03/27 14:09:32;;;;;;;22.10;17.63;;;;;;;;;;5049894;28;20208;-73
2022/03/27 14:12:01;;;;;;;24.17;17.73;;;;;;;;;;5049099;28;20638;-73
2022/03/27 14:14:29;;;;;;;22.77;16.83;;;;;;;;;;5045861;28;20203;-73
2022/03/27 14:16:58;;;;;;;23.20;18.07;;;;;;;;;;5052530;28;20226;-73
2022/03/27 14:19:26;;;;;;;22.13;17.67;;;;;;;;;;5050490;28;20647;-72
2022/03/27 14:21:56;;;;;;;21.70;16.43;;;;;;;;;;5052284;28;20219;-74
2022/03/27 14:24:28;;;;;;;22.77;16.60;;;;;;;;;;5041340;28;20341;-73
2022/03/27 14:26:58;;;;;;;22.20;16.97;;;;;;;;;;5052469;28;20281;-73
2022/03/27 14:29:26;;;;;;;23.00;16.30;;;;;;;;;;5052775;28;20199;-73
2022/03/27 14:31:56;;;;;;;23.13;16.63;;;;;;;;;;5053473;28;20252;-72
2022/03/27 14:34:24;;;;;;;20.30;15.70;;;;;;;;;;5052760;28;20217;-73
2022/03/27 14:36:53;;;;;;;20.97;15.47;;;;;;;;;;5047164;28;20219;-73
2022/03/27 14:39:21;;;;;;;22.00;16.23;;;;;;;;;;5052196;28;20202;-73
2022/03/27 14:41:52;;;;;;;20.37;15.23;;;;;;;;;;5048280;28;20550;-72
2022/03/27 14:44:22;;;;;;;19.07;15.13;;;;;;;;;;5051807;28;20208;-73
2022/03/27 14:46:50;;;;;;;20.57;15.60;;;;;;;;;;5052647;28;20227;-73
2022/03/27 14:49:19;;;;;;;20.03;15.33;;;;;;;;;;5053054;28;20286;-73